sensor_id;sensor_type;location;lat;lon;timestamp;temperature;humidity
5834;DHT22;2943;48.012;10.968;2023-04-25T00:00:48;7.20;99.90
5834;DHT22;2943;48.012;10.968;2023-04-25T00:03:15;7.20;99.90
5834;DHT22;2943;48.012;10.968;2023-04-25T00:05:44;7.20;99.90
5834;DHT22;2943;48.012;10.968;2023-04-25T00:08:12;7.20;99.90
5834;DHT22;2943;48.012;10.968;2023-04-25T00:10:39;7.20;99.90
5834;DHT22;2943;48.012;10.968;2023-04-25T00:13:05;7.20;99.90
5834;DHT22;2943;48.012;10.968;2023-04-25T00:15:33;7.20;99.90
5834;DHT22;2943;48.012;10.968;2023-04-25T00:18:03;7.20;99.90
5834;DHT22;2943;48.012;10.968;2023-04-25T00:20:31;7.10;99.90
5834;DHT22;2943;48.012;10.968;2023-04-25T00:22:58;7.10;99.90
5834;DHT22;2943;48.012;10.968;2023-04-25T00:25:25;7.10;99.90
5834;DHT22;2943;48.012;10.968;2023-04-25T00:27:52;7.10;99.90
5834;DHT22;2943;48.012;10.968;2023-04-25T00:30:19;7.00;99.90
5834;DHT22;2943;48.012;10.968;2023-04-25T00:32:45;7.00;99.90
5834;DHT22;2943;48.012;10.968;2023-04-25T00:35:14;7.10;99.90
5834;DHT22;2943;48.012;10.968;2023-04-25T00:37:41;7.10;99.90
5834;DHT22;2943;48.012;10.968;2023-04-25T00:40:09;7.00;99.90
5834;DHT22;2943;48.012;10.968;2023-04-25T00:42:38;7.00;99.90
5834;DHT22;2943;48.012;10.968;2023-04-25T00:45:07;7.00;99.90
5834;DHT22;2943;48.012;10.968;2023-04-25T00:47:39;7.00;99.90
5834;DHT22;2943;48.012;10.968;2023-04-25T00:50:07;7.00;99.90
5834;DHT22;2943;48.012;10.968;2023-04-25T00:52:35;6.90;99.90
5834;DHT22;2943;48.012;10.968;2023-04-25T00:55:03;7.00;99.90
5834;DHT22;2943;48.012;10.968;2023-04-25T00:57:30;6.90;99.90
5834;DHT22;2943;48.012;10.968;2023-04-25T00:59:57;6.90;99.90
5834;DHT22;2943;48.012;10.968;2023-04-25T01:02:26;7.00;99.90
5834;DHT22;2943;48.012;10.968;2023-04-25T01:04:53;7.00;99.90
5834;DHT22;2943;48.012;10.968;2023-04-25T01:07:20;7.00;99.90
5834;DHT22;2943;48.012;10.968;2023-04-25T01:09:51;7.00;99.90
5834;DHT22;2943;48.012;10.968;2023-04-25T01:12:17;7.00;99.90
5834;DHT22;2943;48.012;10.968;2023-04-25T01:14:44;7.00;99.90
5834;DHT22;2943;48.012;10.968;2023-04-25T01:17:12;7.00;99.90
5834;DHT22;2943;48.012;10.968;2023-04-25T01:19:39;7.00;99.90
5834;DHT22;2943;48.012;10.968;2023-04-25T01:22:07;7.00;99.90
5834;DHT22;2943;48.012;10.968;2023-04-25T01:24:35;7.00;99.90
5834;DHT22;2943;48.012;10.968;2023-04-25T01:27:03;6.90;99.90
5834;DHT22;2943;48.012;10.968;2023-04-25T01:29:30;6.90;99.90
5834;DHT22;2943;48.012;10.968;2023-04-25T01:31:57;6.90;99.90
5834;DHT22;2943;48.012;10.968;2023-04-25T01:34:25;6.90;99.90
5834;DHT22;2943;48.012;10.968;2023-04-25T01:36:53;6.90;99.90
5834;DHT22;2943;48.012;10.968;2023-04-25T01:39:21;6.80;99.90
5834;DHT22;2943;48.012;10.968;2023-04-25T01:41:48;6.80;99.90
5834;DHT22;2943;48.012;10.968;2023-04-25T01:44:15;6.80;99.90
5834;DHT22;2943;48.012;10.968;2023-04-25T01:46:42;6.70;99.90
5834;DHT22;2943;48.012;10.968;2023-04-25T01:49:09;6.70;99.90
5834;DHT22;2943;48.012;10.968;2023-04-25T01:51:36;6.60;99.90
5834;DHT22;2943;48.012;10.968;2023-04-25T01:54:03;6.60;99.90
5834;DHT22;2943;48.012;10.968;2023-04-25T01:56:32;6.60;99.90
5834;DHT22;2943;48.012;10.968;2023-04-25T01:58:59;6.60;99.90
5834;DHT22;2943;48.012;10.968;2023-04-25T02:01:26;6.60;99.90
5834;DHT22;2943;48.012;10.968;2023-04-25T02:03:52;6.60;99.90
5834;DHT22;2943;48.012;10.968;2023-04-25T02:06:19;6.60;99.90
5834;DHT22;2943;48.012;10.968;2023-04-25T02:08:46;6.60;99.90
5834;DHT22;2943;48.012;10.968;2023-04-25T02:11:13;6.70;99.90
5834;DHT22;2943;48.012;10.968;2023-04-25T02:13:41;6.70;99.90
5834;DHT22;2943;48.012;10.968;2023-04-25T02:16:08;6.70;99.90
5834;DHT22;2943;48.012;10.968;2023-04-25T02:18:34;6.70;99.90
5834;DHT22;2943;48.012;10.968;2023-04-25T02:21:02;6.70;99.90
5834;DHT22;2943;48.012;10.968;2023-04-25T02:23:29;6.70;99.90
5834;DHT22;2943;48.012;10.968;2023-04-25T02:25:56;6.60;99.90
5834;DHT22;2943;48.012;10.968;2023-04-25T02:28:23;6.30;99.90
5834;DHT22;2943;48.012;10.968;2023-04-25T02:30:52;6.00;99.90
5834;DHT22;2943;48.012;10.968;2023-04-25T02:33:19;5.80;99.90
5834;DHT22;2943;48.012;10.968;2023-04-25T02:35:46;5.60;99.90
5834;DHT22;2943;48.012;10.968;2023-04-25T02:38:13;5.50;99.90
5834;DHT22;2943;48.012;10.968;2023-04-25T02:40:40;5.40;99.90
5834;DHT22;2943;48.012;10.968;2023-04-25T02:43:07;5.40;99.90
5834;DHT22;2943;48.012;10.968;2023-04-25T02:45:34;5.40;99.90
5834;DHT22;2943;48.012;10.968;2023-04-25T02:48:02;5.40;99.90
5834;DHT22;2943;48.012;10.968;2023-04-25T02:50:29;5.40;99.90
5834;DHT22;2943;48.012;10.968;2023-04-25T02:52:55;5.40;99.90
5834;DHT22;2943;48.012;10.968;2023-04-25T02:55:22;5.50;99.90
5834;DHT22;2943;48.012;10.968;2023-04-25T02:57:49;5.50;99.90
5834;DHT22;2943;48.012;10.968;2023-04-25T03:00:16;5.50;99.90
5834;DHT22;2943;48.012;10.968;2023-04-25T03:02:42;5.60;99.90
5834;DHT22;2943;48.012;10.968;2023-04-25T03:05:11;5.60;99.90
5834;DHT22;2943;48.012;10.968;2023-04-25T03:07:37;5.70;99.90
5834;DHT22;2943;48.012;10.968;2023-04-25T03:10:06;5.70;99.90
5834;DHT22;2943;48.012;10.968;2023-04-25T03:12:33;5.70;99.90
5834;DHT22;2943;48.012;10.968;2023-04-25T03:14:59;5.70;99.90
5834;DHT22;2943;48.012;10.968;2023-04-25T03:17:26;5.80;99.90
5834;DHT22;2943;48.012;10.968;2023-04-25T03:19:53;5.70;99.90
5834;DHT22;2943;48.012;10.968;2023-04-25T03:22:22;5.80;99.90
5834;DHT22;2943;48.012;10.968;2023-04-25T03:24:49;5.70;99.90
5834;DHT22;2943;48.012;10.968;2023-04-25T03:27:15;5.70;99.90
5834;DHT22;2943;48.012;10.968;2023-04-25T03:29:42;5.80;99.90
5834;DHT22;2943;48.012;10.968;2023-04-25T03:32:09;5.80;99.90
5834;DHT22;2943;48.012;10.968;2023-04-25T03:34:36;5.80;99.90
5834;DHT22;2943;48.012;10.968;2023-04-25T03:37:03;5.80;99.90
5834;DHT22;2943;48.012;10.968;2023-04-25T03:39:31;5.80;99.90
5834;DHT22;2943;48.012;10.968;2023-04-25T03:41:57;5.90;99.90
5834;DHT22;2943;48.012;10.968;2023-04-25T03:44:24;5.90;99.90
5834;DHT22;2943;48.012;10.968;2023-04-25T03:46:51;5.90;99.90
5834;DHT22;2943;48.012;10.968;2023-04-25T03:49:18;5.90;99.90
5834;DHT22;2943;48.012;10.968;2023-04-25T03:51:45;5.90;99.90
5834;DHT22;2943;48.012;10.968;2023-04-25T03:54:11;5.90;99.90
5834;DHT22;2943;48.012;10.968;2023-04-25T03:56:40;6.00;99.90
5834;DHT22;2943;48.012;10.968;2023-04-25T03:59:06;6.00;99.90
5834;DHT22;2943;48.012;10.968;2023-04-25T04:01:33;6.00;99.90
5834;DHT22;2943;48.012;10.968;2023-04-25T04:04:00;6.00;99.90
5834;DHT22;2943;48.012;10.968;2023-04-25T04:06:27;5.90;99.90
5834;DHT22;2943;48.012;10.968;2023-04-25T04:08:54;5.80;99.90
5834;DHT22;2943;48.012;10.968;2023-04-25T04:11:22;5.80;99.90
5834;DHT22;2943;48.012;10.968;2023-04-25T04:13:50;5.70;99.90
5834;DHT22;2943;48.012;10.968;2023-04-25T04:16:16;5.70;99.90
5834;DHT22;2943;48.012;10.968;2023-04-25T04:18:45;5.60;99.90
5834;DHT22;2943;48.012;10.968;2023-04-25T04:21:12;5.70;99.90
5834;DHT22;2943;48.012;10.968;2023-04-25T04:23:39;5.70;99.90
5834;DHT22;2943;48.012;10.968;2023-04-25T04:26:05;5.70;99.90
5834;DHT22;2943;48.012;10.968;2023-04-25T04:28:32;5.60;99.90
5834;DHT22;2943;48.012;10.968;2023-04-25T04:31:00;5.60;99.90
5834;DHT22;2943;48.012;10.968;2023-04-25T04:33:28;5.60;99.90
5834;DHT22;2943;48.012;10.968;2023-04-25T04:35:54;5.50;99.90
5834;DHT22;2943;48.012;10.968;2023-04-25T04:38:21;5.50;99.90
5834;DHT22;2943;48.012;10.968;2023-04-25T04:40:49;5.50;99.90
5834;DHT22;2943;48.012;10.968;2023-04-25T04:43:16;5.50;99.90
5834;DHT22;2943;48.012;10.968;2023-04-25T04:45:44;5.50;99.90
5834;DHT22;2943;48.012;10.968;2023-04-25T04:48:12;5.40;99.90
5834;DHT22;2943;48.012;10.968;2023-04-25T04:50:39;5.50;99.90
5834;DHT22;2943;48.012;10.968;2023-04-25T04:53:06;5.60;99.90
5834;DHT22;2943;48.012;10.968;2023-04-25T04:55:33;5.60;99.90
5834;DHT22;2943;48.012;10.968;2023-04-25T04:58:00;5.60;99.90
5834;DHT22;2943;48.012;10.968;2023-04-25T05:00:27;5.70;99.90
5834;DHT22;2943;48.012;10.968;2023-04-25T05:02:54;5.60;99.90
5834;DHT22;2943;48.012;10.968;2023-04-25T05:05:23;5.70;99.90
5834;DHT22;2943;48.012;10.968;2023-04-25T05:07:50;5.70;99.90
5834;DHT22;2943;48.012;10.968;2023-04-25T05:10:17;5.70;99.90
5834;DHT22;2943;48.012;10.968;2023-04-25T05:12:44;5.70;99.90
5834;DHT22;2943;48.012;10.968;2023-04-25T05:15:11;5.70;99.90
5834;DHT22;2943;48.012;10.968;2023-04-25T05:17:37;5.80;99.90
5834;DHT22;2943;48.012;10.968;2023-04-25T05:20:06;5.80;99.90
5834;DHT22;2943;48.012;10.968;2023-04-25T05:22:36;5.90;99.90
5834;DHT22;2943;48.012;10.968;2023-04-25T05:25:03;5.90;99.90
5834;DHT22;2943;48.012;10.968;2023-04-25T05:27:30;5.90;99.90
5834;DHT22;2943;48.012;10.968;2023-04-25T05:29:57;5.90;99.90
5834;DHT22;2943;48.012;10.968;2023-04-25T05:32:24;5.90;99.90
5834;DHT22;2943;48.012;10.968;2023-04-25T05:34:51;6.00;99.90
5834;DHT22;2943;48.012;10.968;2023-04-25T05:37:18;6.20;99.90
5834;DHT22;2943;48.012;10.968;2023-04-25T05:39:46;6.50;99.90
5834;DHT22;2943;48.012;10.968;2023-04-25T05:42:13;6.70;99.90
5834;DHT22;2943;48.012;10.968;2023-04-25T05:44:39;6.90;99.90
5834;DHT22;2943;48.012;10.968;2023-04-25T05:47:06;6.90;99.90
5834;DHT22;2943;48.012;10.968;2023-04-25T05:49:33;6.90;99.90
5834;DHT22;2943;48.012;10.968;2023-04-25T05:52:00;6.70;99.90
5834;DHT22;2943;48.012;10.968;2023-04-25T05:54:27;6.60;99.90
5834;DHT22;2943;48.012;10.968;2023-04-25T05:56:56;6.50;99.90
5834;DHT22;2943;48.012;10.968;2023-04-25T05:59:23;6.50;99.90
5834;DHT22;2943;48.012;10.968;2023-04-25T06:01:49;6.30;99.90
5834;DHT22;2943;48.012;10.968;2023-04-25T06:04:17;6.30;99.90
5834;DHT22;2943;48.012;10.968;2023-04-25T06:06:43;6.20;99.90
5834;DHT22;2943;48.012;10.968;2023-04-25T06:09:10;6.20;99.90
5834;DHT22;2943;48.012;10.968;2023-04-25T06:11:37;6.20;99.90
5834;DHT22;2943;48.012;10.968;2023-04-25T06:14:05;6.20;99.90
5834;DHT22;2943;48.012;10.968;2023-04-25T06:16:32;6.20;99.90
5834;DHT22;2943;48.012;10.968;2023-04-25T06:18:59;6.10;99.90
5834;DHT22;2943;48.012;10.968;2023-04-25T06:21:26;6.20;99.90
5834;DHT22;2943;48.012;10.968;2023-04-25T06:23:53;6.20;99.90
5834;DHT22;2943;48.012;10.968;2023-04-25T06:26:20;6.30;99.90
5834;DHT22;2943;48.012;10.968;2023-04-25T06:28:47;6.30;99.90
5834;DHT22;2943;48.012;10.968;2023-04-25T06:31:15;6.40;99.90
5834;DHT22;2943;48.012;10.968;2023-04-25T06:33:42;6.40;99.90
5834;DHT22;2943;48.012;10.968;2023-04-25T06:36:08;6.40;99.90
5834;DHT22;2943;48.012;10.968;2023-04-25T06:38:35;6.40;99.90
5834;DHT22;2943;48.012;10.968;2023-04-25T06:41:02;6.40;99.90
5834;DHT22;2943;48.012;10.968;2023-04-25T06:43:29;6.50;99.90
5834;DHT22;2943;48.012;10.968;2023-04-25T06:45:58;6.60;99.90
5834;DHT22;2943;48.012;10.968;2023-04-25T06:48:27;6.70;99.90
5834;DHT22;2943;48.012;10.968;2023-04-25T06:50:54;6.70;99.90
5834;DHT22;2943;48.012;10.968;2023-04-25T06:53:22;6.80;99.90
5834;DHT22;2943;48.012;10.968;2023-04-25T06:55:48;6.90;99.90
5834;DHT22;2943;48.012;10.968;2023-04-25T06:58:15;7.00;99.90
5834;DHT22;2943;48.012;10.968;2023-04-25T07:00:42;7.10;99.90
5834;DHT22;2943;48.012;10.968;2023-04-25T07:03:09;7.10;99.90
5834;DHT22;2943;48.012;10.968;2023-04-25T07:05:37;7.20;99.90
5834;DHT22;2943;48.012;10.968;2023-04-25T07:08:04;7.30;99.90
5834;DHT22;2943;48.012;10.968;2023-04-25T07:10:30;7.30;99.90
5834;DHT22;2943;48.012;10.968;2023-04-25T07:12:57;7.40;99.90
5834;DHT22;2943;48.012;10.968;2023-04-25T07:15:24;7.40;99.90
5834;DHT22;2943;48.012;10.968;2023-04-25T07:17:51;7.50;99.90
5834;DHT22;2943;48.012;10.968;2023-04-25T07:20:18;7.60;99.90
5834;DHT22;2943;48.012;10.968;2023-04-25T07:22:46;7.70;99.90
5834;DHT22;2943;48.012;10.968;2023-04-25T07:25:13;7.70;99.90
5834;DHT22;2943;48.012;10.968;2023-04-25T07:27:39;7.70;99.90
5834;DHT22;2943;48.012;10.968;2023-04-25T07:30:08;7.70;99.90
5834;DHT22;2943;48.012;10.968;2023-04-25T07:32:35;7.80;99.90
5834;DHT22;2943;48.012;10.968;2023-04-25T07:35:01;7.80;99.90
5834;DHT22;2943;48.012;10.968;2023-04-25T07:37:28;7.90;99.90
5834;DHT22;2943;48.012;10.968;2023-04-25T07:39:56;8.00;99.90
5834;DHT22;2943;48.012;10.968;2023-04-25T07:42:23;8.10;99.90
5834;DHT22;2943;48.012;10.968;2023-04-25T07:44:50;8.20;99.90
5834;DHT22;2943;48.012;10.968;2023-04-25T07:47:17;8.30;99.90
5834;DHT22;2943;48.012;10.968;2023-04-25T07:49:45;8.40;99.90
5834;DHT22;2943;48.012;10.968;2023-04-25T07:52:12;8.50;99.90
5834;DHT22;2943;48.012;10.968;2023-04-25T07:54:39;8.60;99.90
5834;DHT22;2943;48.012;10.968;2023-04-25T07:57:07;8.70;99.90
5834;DHT22;2943;48.012;10.968;2023-04-25T07:59:34;8.80;99.90
5834;DHT22;2943;48.012;10.968;2023-04-25T08:02:01;8.80;99.90
5834;DHT22;2943;48.012;10.968;2023-04-25T08:04:28;8.80;99.90
5834;DHT22;2943;48.012;10.968;2023-04-25T08:06:54;8.80;99.90
5834;DHT22;2943;48.012;10.968;2023-04-25T08:09:21;8.70;99.90
5834;DHT22;2943;48.012;10.968;2023-04-25T08:11:48;8.60;99.90
5834;DHT22;2943;48.012;10.968;2023-04-25T08:14:16;8.50;99.90
5834;DHT22;2943;48.012;10.968;2023-04-25T08:16:43;8.50;99.90
5834;DHT22;2943;48.012;10.968;2023-04-25T08:19:10;8.40;99.90
5834;DHT22;2943;48.012;10.968;2023-04-25T08:21:37;8.40;99.90
5834;DHT22;2943;48.012;10.968;2023-04-25T08:24:04;8.60;99.90
5834;DHT22;2943;48.012;10.968;2023-04-25T08:26:31;8.70;99.90
5834;DHT22;2943;48.012;10.968;2023-04-25T08:28:58;8.80;99.90
5834;DHT22;2943;48.012;10.968;2023-04-25T08:31:27;9.00;99.90
5834;DHT22;2943;48.012;10.968;2023-04-25T08:33:54;9.00;99.90
5834;DHT22;2943;48.012;10.968;2023-04-25T08:36:20;9.20;99.90
5834;DHT22;2943;48.012;10.968;2023-04-25T08:38:47;9.20;99.90
5834;DHT22;2943;48.012;10.968;2023-04-25T08:41:15;9.20;99.90
5834;DHT22;2943;48.012;10.968;2023-04-25T08:43:43;9.10;99.90
5834;DHT22;2943;48.012;10.968;2023-04-25T08:46:11;9.00;99.90
5834;DHT22;2943;48.012;10.968;2023-04-25T08:48:40;8.90;99.90
5834;DHT22;2943;48.012;10.968;2023-04-25T08:51:10;8.90;99.90
5834;DHT22;2943;48.012;10.968;2023-04-25T08:53:41;8.90;99.90
5834;DHT22;2943;48.012;10.968;2023-04-25T08:56:09;8.90;99.90
5834;DHT22;2943;48.012;10.968;2023-04-25T08:58:38;9.00;99.90
5834;DHT22;2943;48.012;10.968;2023-04-25T09:01:05;9.10;99.90
5834;DHT22;2943;48.012;10.968;2023-04-25T09:03:32;9.30;99.90
5834;DHT22;2943;48.012;10.968;2023-04-25T09:06:01;9.50;99.90
5834;DHT22;2943;48.012;10.968;2023-04-25T09:08:28;9.70;99.90
5834;DHT22;2943;48.012;10.968;2023-04-25T09:10:55;9.70;99.90
5834;DHT22;2943;48.012;10.968;2023-04-25T09:13:25;9.70;99.90
5834;DHT22;2943;48.012;10.968;2023-04-25T09:15:53;9.70;99.90
5834;DHT22;2943;48.012;10.968;2023-04-25T09:18:24;9.80;99.90
5834;DHT22;2943;48.012;10.968;2023-04-25T09:20:52;9.90;99.90
5834;DHT22;2943;48.012;10.968;2023-04-25T09:23:21;9.90;99.90
5834;DHT22;2943;48.012;10.968;2023-04-25T09:25:49;10.00;99.90
5834;DHT22;2943;48.012;10.968;2023-04-25T09:28:22;9.90;99.90
5834;DHT22;2943;48.012;10.968;2023-04-25T09:30:49;9.90;99.90
5834;DHT22;2943;48.012;10.968;2023-04-25T09:33:16;9.80;99.90
5834;DHT22;2943;48.012;10.968;2023-04-25T09:35:44;9.70;99.90
5834;DHT22;2943;48.012;10.968;2023-04-25T09:38:12;9.60;99.90
5834;DHT22;2943;48.012;10.968;2023-04-25T09:40:41;9.50;99.90
5834;DHT22;2943;48.012;10.968;2023-04-25T09:43:09;9.50;99.90
5834;DHT22;2943;48.012;10.968;2023-04-25T09:45:43;9.50;99.90
5834;DHT22;2943;48.012;10.968;2023-04-25T09:48:17;9.40;99.90
5834;DHT22;2943;48.012;10.968;2023-04-25T09:50:44;9.30;99.90
5834;DHT22;2943;48.012;10.968;2023-04-25T09:53:11;9.30;99.90
5834;DHT22;2943;48.012;10.968;2023-04-25T09:55:38;9.20;99.90
5834;DHT22;2943;48.012;10.968;2023-04-25T09:58:07;9.20;99.90
5834;DHT22;2943;48.012;10.968;2023-04-25T10:00:35;9.20;99.90
5834;DHT22;2943;48.012;10.968;2023-04-25T10:03:05;9.20;99.90
5834;DHT22;2943;48.012;10.968;2023-04-25T10:05:34;9.30;99.90
5834;DHT22;2943;48.012;10.968;2023-04-25T10:08:03;9.30;99.90
5834;DHT22;2943;48.012;10.968;2023-04-25T10:10:31;9.30;99.90
5834;DHT22;2943;48.012;10.968;2023-04-25T10:13:03;9.30;99.90
5834;DHT22;2943;48.012;10.968;2023-04-25T10:15:32;9.30;99.90
5834;DHT22;2943;48.012;10.968;2023-04-25T10:18:01;9.30;99.90
5834;DHT22;2943;48.012;10.968;2023-04-25T10:20:28;9.20;99.90
5834;DHT22;2943;48.012;10.968;2023-04-25T10:22:58;9.00;99.90
5834;DHT22;2943;48.012;10.968;2023-04-25T10:25:29;8.90;99.90
5834;DHT22;2943;48.012;10.968;2023-04-25T10:27:59;8.80;99.90
5834;DHT22;2943;48.012;10.968;2023-04-25T10:30:26;8.70;99.90
5834;DHT22;2943;48.012;10.968;2023-04-25T10:32:55;8.60;99.90
5834;DHT22;2943;48.012;10.968;2023-04-25T10:35:26;8.50;99.90
5834;DHT22;2943;48.012;10.968;2023-04-25T10:38:14;8.30;99.90
5834;DHT22;2943;48.012;10.968;2023-04-25T10:40:40;8.10;99.90
5834;DHT22;2943;48.012;10.968;2023-04-25T10:43:36;8.00;99.90
5834;DHT22;2943;48.012;10.968;2023-04-25T10:46:13;7.80;99.90
5834;DHT22;2943;48.012;10.968;2023-04-25T10:48:49;7.60;99.90
5834;DHT22;2943;48.012;10.968;2023-04-25T10:51:19;7.40;99.90
5834;DHT22;2943;48.012;10.968;2023-04-25T10:53:46;7.30;99.90
5834;DHT22;2943;48.012;10.968;2023-04-25T10:56:17;7.10;99.90
5834;DHT22;2943;48.012;10.968;2023-04-25T10:58:45;7.00;99.90
5834;DHT22;2943;48.012;10.968;2023-04-25T11:01:13;7.00;99.90
5834;DHT22;2943;48.012;10.968;2023-04-25T11:03:45;6.90;99.90
5834;DHT22;2943;48.012;10.968;2023-04-25T11:06:20;6.80;99.90
5834;DHT22;2943;48.012;10.968;2023-04-25T11:08:50;6.70;99.90
5834;DHT22;2943;48.012;10.968;2023-04-25T11:11:18;6.70;99.90
5834;DHT22;2943;48.012;10.968;2023-04-25T11:13:47;6.70;99.90
5834;DHT22;2943;48.012;10.968;2023-04-25T11:16:15;6.70;99.90
5834;DHT22;2943;48.012;10.968;2023-04-25T11:18:43;6.70;99.90
5834;DHT22;2943;48.012;10.968;2023-04-25T11:21:11;6.60;99.90
5834;DHT22;2943;48.012;10.968;2023-04-25T11:23:38;6.50;99.90
5834;DHT22;2943;48.012;10.968;2023-04-25T11:26:05;6.50;99.90
5834;DHT22;2943;48.012;10.968;2023-04-25T11:28:32;6.40;99.90
5834;DHT22;2943;48.012;10.968;2023-04-25T11:30:59;6.40;99.90
5834;DHT22;2943;48.012;10.968;2023-04-25T11:33:26;6.50;99.90
5834;DHT22;2943;48.012;10.968;2023-04-25T11:35:53;6.50;99.90
5834;DHT22;2943;48.012;10.968;2023-04-25T11:38:22;6.50;99.90
5834;DHT22;2943;48.012;10.968;2023-04-25T11:40:50;6.50;99.90
5834;DHT22;2943;48.012;10.968;2023-04-25T11:43:18;6.60;99.90
5834;DHT22;2943;48.012;10.968;2023-04-25T11:45:46;6.60;99.90
5834;DHT22;2943;48.012;10.968;2023-04-25T11:48:14;6.70;99.90
5834;DHT22;2943;48.012;10.968;2023-04-25T11:50:41;6.80;99.90
5834;DHT22;2943;48.012;10.968;2023-04-25T11:53:08;6.80;99.90
5834;DHT22;2943;48.012;10.968;2023-04-25T11:55:37;6.70;99.90
5834;DHT22;2943;48.012;10.968;2023-04-25T11:58:05;6.80;99.90
5834;DHT22;2943;48.012;10.968;2023-04-25T12:00:32;6.80;99.90
5834;DHT22;2943;48.012;10.968;2023-04-25T12:02:59;6.80;99.90
5834;DHT22;2943;48.012;10.968;2023-04-25T12:05:29;6.70;99.90
5834;DHT22;2943;48.012;10.968;2023-04-25T12:07:56;6.70;99.90
5834;DHT22;2943;48.012;10.968;2023-04-25T12:10:24;6.60;99.90
5834;DHT22;2943;48.012;10.968;2023-04-25T12:12:53;6.60;99.90
5834;DHT22;2943;48.012;10.968;2023-04-25T12:15:24;6.50;99.90
5834;DHT22;2943;48.012;10.968;2023-04-25T12:17:52;6.50;99.90
5834;DHT22;2943;48.012;10.968;2023-04-25T12:20:20;6.50;99.90
5834;DHT22;2943;48.012;10.968;2023-04-25T12:22:49;6.60;99.90
5834;DHT22;2943;48.012;10.968;2023-04-25T12:25:34;6.60;99.90
5834;DHT22;2943;48.012;10.968;2023-04-25T12:28:13;6.70;99.90
5834;DHT22;2943;48.012;10.968;2023-04-25T12:30:57;6.70;99.90
5834;DHT22;2943;48.012;10.968;2023-04-25T12:33:25;6.80;99.90
5834;DHT22;2943;48.012;10.968;2023-04-25T12:35:52;6.80;99.90
5834;DHT22;2943;48.012;10.968;2023-04-25T12:38:23;6.80;99.90
5834;DHT22;2943;48.012;10.968;2023-04-25T12:40:51;6.80;99.90
5834;DHT22;2943;48.012;10.968;2023-04-25T12:43:19;6.80;99.90
5834;DHT22;2943;48.012;10.968;2023-04-25T12:45:47;6.70;99.90
5834;DHT22;2943;48.012;10.968;2023-04-25T12:48:15;6.70;99.90
5834;DHT22;2943;48.012;10.968;2023-04-25T12:50:41;6.70;99.90
5834;DHT22;2943;48.012;10.968;2023-04-25T12:53:08;6.80;99.90
5834;DHT22;2943;48.012;10.968;2023-04-25T12:55:35;6.90;99.90
5834;DHT22;2943;48.012;10.968;2023-04-25T12:58:02;7.00;99.90
5834;DHT22;2943;48.012;10.968;2023-04-25T13:00:30;7.10;99.90
5834;DHT22;2943;48.012;10.968;2023-04-25T13:02:58;7.20;99.90
5834;DHT22;2943;48.012;10.968;2023-04-25T13:05:25;7.10;99.90
5834;DHT22;2943;48.012;10.968;2023-04-25T13:07:52;7.00;99.90
5834;DHT22;2943;48.012;10.968;2023-04-25T13:10:18;6.80;99.90
5834;DHT22;2943;48.012;10.968;2023-04-25T13:12:45;6.70;99.90
5834;DHT22;2943;48.012;10.968;2023-04-25T13:15:12;6.60;99.90
5834;DHT22;2943;48.012;10.968;2023-04-25T13:17:42;6.60;99.90
5834;DHT22;2943;48.012;10.968;2023-04-25T13:20:09;6.50;99.90
5834;DHT22;2943;48.012;10.968;2023-04-25T13:22:37;6.40;99.90
5834;DHT22;2943;48.012;10.968;2023-04-25T13:25:06;6.40;99.90
5834;DHT22;2943;48.012;10.968;2023-04-25T13:27:34;6.40;99.90
5834;DHT22;2943;48.012;10.968;2023-04-25T13:30:01;6.40;99.90
5834;DHT22;2943;48.012;10.968;2023-04-25T13:32:32;6.40;99.90
5834;DHT22;2943;48.012;10.968;2023-04-25T13:35:00;6.40;99.90
5834;DHT22;2943;48.012;10.968;2023-04-25T13:37:27;6.40;99.90
5834;DHT22;2943;48.012;10.968;2023-04-25T13:39:55;6.50;99.90
5834;DHT22;2943;48.012;10.968;2023-04-25T13:42:23;6.40;99.90
5834;DHT22;2943;48.012;10.968;2023-04-25T13:44:50;6.40;99.90
5834;DHT22;2943;48.012;10.968;2023-04-25T13:47:16;6.50;99.90
5834;DHT22;2943;48.012;10.968;2023-04-25T13:49:43;6.40;99.90
5834;DHT22;2943;48.012;10.968;2023-04-25T13:52:11;6.40;99.90
5834;DHT22;2943;48.012;10.968;2023-04-25T13:54:38;6.30;99.90
5834;DHT22;2943;48.012;10.968;2023-04-25T13:57:06;6.30;99.90
5834;DHT22;2943;48.012;10.968;2023-04-25T13:59:32;6.40;99.90
5834;DHT22;2943;48.012;10.968;2023-04-25T14:01:59;6.40;99.90
5834;DHT22;2943;48.012;10.968;2023-04-25T14:04:27;6.40;99.90
5834;DHT22;2943;48.012;10.968;2023-04-25T14:06:53;6.40;99.90
5834;DHT22;2943;48.012;10.968;2023-04-25T14:09:22;6.40;99.90
5834;DHT22;2943;48.012;10.968;2023-04-25T14:11:52;6.50;99.90
5834;DHT22;2943;48.012;10.968;2023-04-25T14:14:19;6.50;99.90
5834;DHT22;2943;48.012;10.968;2023-04-25T14:16:46;6.60;99.90
5834;DHT22;2943;48.012;10.968;2023-04-25T14:19:14;6.70;99.90
5834;DHT22;2943;48.012;10.968;2023-04-25T14:21:41;6.80;99.90
5834;DHT22;2943;48.012;10.968;2023-04-25T14:24:08;6.80;99.90
5834;DHT22;2943;48.012;10.968;2023-04-25T14:26:38;6.80;99.90
5834;DHT22;2943;48.012;10.968;2023-04-25T14:29:05;6.80;99.90
5834;DHT22;2943;48.012;10.968;2023-04-25T14:31:32;6.70;99.90
5834;DHT22;2943;48.012;10.968;2023-04-25T14:33:59;6.80;99.90
5834;DHT22;2943;48.012;10.968;2023-04-25T14:36:26;6.80;99.90
5834;DHT22;2943;48.012;10.968;2023-04-25T14:38:54;6.90;99.90
5834;DHT22;2943;48.012;10.968;2023-04-25T14:41:21;6.90;99.90
5834;DHT22;2943;48.012;10.968;2023-04-25T14:43:49;6.90;99.90
5834;DHT22;2943;48.012;10.968;2023-04-25T14:46:17;6.90;99.90
5834;DHT22;2943;48.012;10.968;2023-04-25T14:48:43;7.00;99.90
5834;DHT22;2943;48.012;10.968;2023-04-25T14:51:10;7.00;99.90
5834;DHT22;2943;48.012;10.968;2023-04-25T14:53:37;7.00;99.90
5834;DHT22;2943;48.012;10.968;2023-04-25T14:56:04;6.90;99.90
5834;DHT22;2943;48.012;10.968;2023-04-25T14:58:32;6.90;99.90
5834;DHT22;2943;48.012;10.968;2023-04-25T15:01:00;6.80;99.90
5834;DHT22;2943;48.012;10.968;2023-04-25T15:03:27;6.70;99.90
5834;DHT22;2943;48.012;10.968;2023-04-25T15:05:55;6.60;99.90
5834;DHT22;2943;48.012;10.968;2023-04-25T15:08:22;6.60;99.90
5834;DHT22;2943;48.012;10.968;2023-04-25T15:10:49;6.60;99.90
5834;DHT22;2943;48.012;10.968;2023-04-25T15:13:17;6.70;99.90
5834;DHT22;2943;48.012;10.968;2023-04-25T15:15:44;6.80;99.90
5834;DHT22;2943;48.012;10.968;2023-04-25T15:18:17;6.80;99.90
5834;DHT22;2943;48.012;10.968;2023-04-25T15:20:47;6.90;99.90
5834;DHT22;2943;48.012;10.968;2023-04-25T15:23:13;6.90;99.90
5834;DHT22;2943;48.012;10.968;2023-04-25T15:25:40;6.90;99.90
5834;DHT22;2943;48.012;10.968;2023-04-25T15:28:07;7.00;99.90
5834;DHT22;2943;48.012;10.968;2023-04-25T15:30:34;7.10;99.90
5834;DHT22;2943;48.012;10.968;2023-04-25T15:33:01;7.00;99.90
5834;DHT22;2943;48.012;10.968;2023-04-25T15:35:29;7.00;99.90
5834;DHT22;2943;48.012;10.968;2023-04-25T15:37:56;6.90;99.90
5834;DHT22;2943;48.012;10.968;2023-04-25T15:40:23;6.90;99.90
5834;DHT22;2943;48.012;10.968;2023-04-25T15:42:51;6.80;99.90
5834;DHT22;2943;48.012;10.968;2023-04-25T15:45:18;6.80;99.90
5834;DHT22;2943;48.012;10.968;2023-04-25T15:47:46;6.70;99.90
5834;DHT22;2943;48.012;10.968;2023-04-25T15:50:13;6.70;99.90
5834;DHT22;2943;48.012;10.968;2023-04-25T15:52:42;6.60;99.90
5834;DHT22;2943;48.012;10.968;2023-04-25T15:55:10;6.60;99.90
5834;DHT22;2943;48.012;10.968;2023-04-25T15:57:37;6.50;99.90
5834;DHT22;2943;48.012;10.968;2023-04-25T16:00:07;6.50;99.90
5834;DHT22;2943;48.012;10.968;2023-04-25T16:02:35;6.60;99.90
5834;DHT22;2943;48.012;10.968;2023-04-25T16:05:03;6.60;99.90